Time;durP1;ratioP1;P1;durP2;ratioP2;P2;SDS_P1;SDS_P2;PMS_P1;PMS_P2;Temp;Humidity;BMP_temperature;BMP_pressure;BME280_temperature;BME280_humidity;BME280_pressure;Samples;Min_cycle;Max_cycle;Signal;HPM_P1;HPM_P2
2021/11/01 00:00:33;;;;;;;13.98;2.97;;;;;;;;;;5047868;28;20020;-64
2021/11/01 00:02:58;;;;;;;20.05;3.35;;;;;;;;;;5049780;28;20021;-64
2021/11/01 00:05:25;;;;;;;14.98;2.55;;;;;;;;;;5045604;28;20029;-64
2021/11/01 00:07:50;;;;;;;19.65;4.30;;;;;;;;;;5050472;28;20029;-66
2021/11/01 00:10:16;;;;;;;26.63;2.75;;;;;;;;;;5044702;28;20082;-66
2021/11/01 00:12:41;;;;;;;14.60;2.45;;;;;;;;;;5043400;28;20027;-65
2021/11/01 00:15:07;;;;;;;10.80;1.80;;;;;;;;;;5050559;28;20066;-66
2021/11/01 00:17:32;;;;;;;12.40;3.08;;;;;;;;;;5037999;28;20036;-66
2021/11/01 00:19:58;;;;;;;10.90;1.63;;;;;;;;;;5030696;28;20049;-65
2021/11/01 00:22:23;;;;;;;17.77;2.58;;;;;;;;;;5044305;28;20033;-66
2021/11/01 00:24:49;;;;;;;20.60;2.35;;;;;;;;;;5035837;28;20386;-66
2021/11/01 00:27:15;;;;;;;18.17;2.85;;;;;;;;;;5032176;28;20417;-65
2021/11/01 00:29:40;;;;;;;11.43;2.35;;;;;;;;;;5048998;28;20029;-65
2021/11/01 00:32:06;;;;;;;15.45;1.98;;;;;;;;;;5044302;28;20041;-66
2021/11/01 00:34:31;;;;;;;14.80;1.92;;;;;;;;;;5035290;28;20198;-66
2021/11/01 00:36:56;;;;;;;15.70;2.65;;;;;;;;;;5032069;28;20155;-65
2021/11/01 00:39:22;;;;;;;18.73;2.67;;;;;;;;;;5037133;28;20393;-67
2021/11/01 00:41:47;;;;;;;18.40;3.20;;;;;;;;;;5040723;28;20448;-66
2021/11/01 00:44:12;;;;;;;11.82;2.47;;;;;;;;;;5048818;28;20021;-65
2021/11/01 00:46:38;;;;;;;13.55;2.33;;;;;;;;;;5049212;28;20101;-66
2021/11/01 00:49:04;;;;;;;14.05;2.97;;;;;;;;;;5047876;28;20428;-66
2021/11/01 00:51:29;;;;;;;19.10;2.58;;;;;;;;;;5054077;28;20028;-66
2021/11/01 00:53:54;;;;;;;17.40;2.63;;;;;;;;;;5037124;28;20385;-66
2021/11/01 00:56:19;;;;;;;14.15;2.75;;;;;;;;;;5049362;28;20079;-65
2021/11/01 00:58:45;;;;;;;11.48;1.95;;;;;;;;;;5034223;28;20017;-66
2021/11/01 01:01:10;;;;;;;11.68;2.40;;;;;;;;;;5031462;28;20129;-65
2021/11/01 01:03:35;;;;;;;18.85;3.45;;;;;;;;;;5042479;28;20095;-66
2021/11/01 01:06:03;;;;;;;12.73;2.40;;;;;;;;;;5039648;28;20029;-65
2021/11/01 01:08:28;;;;;;;18.63;3.03;;;;;;;;;;5048342;28;20017;-65
2021/11/01 01:10:53;;;;;;;15.30;2.70;;;;;;;;;;5030287;28;20029;-66
2021/11/01 01:13:22;;;;;;;19.65;2.97;;;;;;;;;;5032950;28;20465;-66
2021/11/01 01:15:57;;;;;;;16.38;1.90;;;;;;;;;;5032158;28;20098;-66
2021/11/01 01:18:27;;;;;;;8.55;1.92;;;;;;;;;;5030809;28;20411;-66
2021/11/01 01:20:53;;;;;;;12.07;1.90;;;;;;;;;;5035132;28;20053;-66
2021/11/01 01:23:19;;;;;;;15.80;2.00;;;;;;;;;;5033799;28;20505;-66
2021/11/01 01:25:47;;;;;;;14.30;2.28;;;;;;;;;;5034038;28;20025;-66
2021/11/01 01:28:14;;;;;;;14.25;2.13;;;;;;;;;;5039993;28;20021;-66
2021/11/01 01:30:39;;;;;;;19.70;2.40;;;;;;;;;;5053760;28;20025;-66
2021/11/01 01:33:09;;;;;;;15.35;1.85;;;;;;;;;;5037362;28;20033;-65
2021/11/01 01:35:37;;;;;;;12.02;2.55;;;;;;;;;;5036793;28;20024;-65
2021/11/01 01:38:03;;;;;;;14.20;2.00;;;;;;;;;;5043796;28;20021;-67
2021/11/01 01:40:28;;;;;;;13.35;1.98;;;;;;;;;;5033535;28;20025;-66
2021/11/01 01:42:53;;;;;;;16.75;2.50;;;;;;;;;;5033142;28;20087;-65
2021/11/01 01:45:19;;;;;;;15.40;2.40;;;;;;;;;;5038166;28;20056;-66
2021/11/01 01:47:44;;;;;;;15.18;2.75;;;;;;;;;;5037072;28;20096;-65
2021/11/01 01:50:10;;;;;;;10.05;1.88;;;;;;;;;;5046977;28;20071;-65
2021/11/01 01:52:35;;;;;;;9.43;2.97;;;;;;;;;;5034221;28;20044;-66
2021/11/01 01:55:00;;;;;;;16.38;3.95;;;;;;;;;;5033459;28;20521;-66
2021/11/01 01:57:26;;;;;;;17.05;2.58;;;;;;;;;;5040569;28;20029;-66
2021/11/01 01:59:51;;;;;;;12.85;1.83;;;;;;;;;;5047262;28;20021;-66
2021/11/01 02:02:17;;;;;;;10.43;2.58;;;;;;;;;;5052031;28;20086;-66
2021/11/01 02:04:43;;;;;;;14.15;2.22;;;;;;;;;;5053184;28;20017;-66
2021/11/01 02:07:13;;;;;;;13.82;2.30;;;;;;;;;;5039464;28;20025;-66
2021/11/01 02:09:57;;;;;;;16.23;2.15;;;;;;;;;;5034204;28;20033;-66
2021/11/01 02:12:29;;;;;;;10.60;1.85;;;;;;;;;;5034745;28;20029;-66
2021/11/01 02:14:56;;;;;;;24.88;2.42;;;;;;;;;;5049298;28;20030;-65
2021/11/01 02:17:24;;;;;;;16.60;2.10;;;;;;;;;;5032902;28;20045;-66
2021/11/01 02:19:51;;;;;;;15.43;2.20;;;;;;;;;;5052118;28;20013;-66
2021/11/01 02:22:20;;;;;;;9.20;1.77;;;;;;;;;;5051551;28;20078;-64
2021/11/01 02:25:18;;;;;;;14.15;2.03;;;;;;;;;;5033665;28;20028;-64
2021/11/01 02:27:44;;;;;;;18.88;2.35;;;;;;;;;;5036747;28;20037;-65
2021/11/01 02:30:10;;;;;;;26.98;2.78;;;;;;;;;;5039757;28;20048;-65
2021/11/01 02:32:36;;;;;;;6.13;1.92;;;;;;;;;;5051395;28;20025;-65
2021/11/01 02:35:03;;;;;;;6.22;1.45;;;;;;;;;;5040632;28;20021;-65
2021/11/01 02:37:28;;;;;;;9.30;1.83;;;;;;;;;;5039269;28;20040;-64
2021/11/01 02:39:55;;;;;;;15.40;2.35;;;;;;;;;;5047571;28;20540;-64
2021/11/01 02:42:21;;;;;;;13.68;2.08;;;;;;;;;;5042325;28;20705;-63
2021/11/01 02:44:53;;;;;;;10.55;2.15;;;;;;;;;;5032506;28;20026;-65
2021/11/01 02:47:18;;;;;;;18.63;2.20;;;;;;;;;;5044346;28;20028;-65
2021/11/01 02:49:43;;;;;;;14.75;2.35;;;;;;;;;;5041604;28;20025;-64
2021/11/01 02:52:09;;;;;;;13.35;1.73;;;;;;;;;;5050069;28;20032;-68
2021/11/01 02:54:34;;;;;;;7.28;1.67;;;;;;;;;;5051592;28;20641;-64
2021/11/01 02:57:00;;;;;;;10.77;2.15;;;;;;;;;;5052155;28;20045;-66
2021/11/01 02:59:25;;;;;;;10.57;2.05;;;;;;;;;;5035829;28;20026;-64
2021/11/01 03:01:50;;;;;;;14.40;2.13;;;;;;;;;;5034459;28;20112;-64
2021/11/01 03:04:15;;;;;;;10.48;2.05;;;;;;;;;;5036007;28;20024;-65
2021/11/01 03:06:41;;;;;;;13.27;1.80;;;;;;;;;;5042326;28;20097;-64
2021/11/01 03:09:06;;;;;;;11.52;2.03;;;;;;;;;;5031915;28;20021;-65
2021/11/01 03:11:31;;;;;;;14.18;2.05;;;;;;;;;;5047718;28;20090;-64
2021/11/01 03:13:57;;;;;;;17.13;2.47;;;;;;;;;;5047123;28;20026;-64
2021/11/01 03:16:23;;;;;;;11.82;2.55;;;;;;;;;;5041644;28;20021;-64
2021/11/01 03:19:10;;;;;;;20.08;2.78;;;;;;;;;;5039074;28;20056;-65
2021/11/01 03:21:38;;;;;;;12.43;2.38;;;;;;;;;;5030831;28;20040;-65
2021/11/01 03:24:04;;;;;;;10.85;2.38;;;;;;;;;;5031292;28;20041;-64
2021/11/01 03:26:30;;;;;;;18.13;3.70;;;;;;;;;;5038621;28;20059;-64
2021/11/01 03:28:57;;;;;;;14.05;2.25;;;;;;;;;;5037395;28;20032;-64
2021/11/01 03:31:23;;;;;;;16.75;2.50;;;;;;;;;;5048911;28;20032;-66
2021/11/01 03:33:49;;;;;;;16.73;2.95;;;;;;;;;;5049402;28;20013;-65
2021/11/01 03:36:14;;;;;;;11.63;2.17;;;;;;;;;;5049376;28;20433;-64
2021/11/01 03:38:41;;;;;;;9.45;2.55;;;;;;;;;;5050333;28;20024;-64
2021/11/01 03:41:10;;;;;;;7.72;1.65;;;;;;;;;;5050892;28;20055;-65
2021/11/01 03:43:57;;;;;;;20.52;2.15;;;;;;;;;;5033068;28;20116;-65
2021/11/01 03:49:00;;;;;;;11.68;2.47;;;;;;;;;;5031838;28;20116;-64
2021/11/01 03:52:15;;;;;;;8.45;1.60;;;;;;;;;;5045593;28;20104;-65
2021/11/01 03:54:12;;;;;;;8.38;1.80;;;;;;;;;;5036423;28;20033;-66
2021/11/01 03:56:38;;;;;;;11.10;1.70;;;;;;;;;;5030924;28;20470;-64
2021/11/01 03:59:03;;;;;;;11.35;3.28;;;;;;;;;;5034129;28;20028;-64
2021/11/01 04:01:28;;;;;;;19.38;2.00;;;;;;;;;;5030817;28;20025;-65
2021/11/01 04:03:54;;;;;;;8.20;1.48;;;;;;;;;;5048985;28;20021;-65
2021/11/01 04:06:21;;;;;;;10.95;1.75;;;;;;;;;;5050003;28;20017;-65
2021/11/01 04:08:47;;;;;;;9.82;1.52;;;;;;;;;;5050272;28;20061;-63
2021/11/01 04:11:12;;;;;;;12.02;1.73;;;;;;;;;;5039658;28;20052;-65
2021/11/01 04:13:38;;;;;;;11.50;1.20;;;;;;;;;;5046034;28;20025;-64
2021/11/01 04:16:14;;;;;;;13.38;1.42;;;;;;;;;;5030934;28;20056;-65
2021/11/01 04:18:53;;;;;;;12.63;1.27;;;;;;;;;;5042427;28;20013;-64
2021/11/01 04:21:19;;;;;;;18.92;1.42;;;;;;;;;;5046598;28;20478;-66
2021/11/01 04:23:44;;;;;;;16.60;2.30;;;;;;;;;;5049635;28;20033;-64
2021/11/01 04:26:14;;;;;;;7.90;1.52;;;;;;;;;;5035769;28;20022;-64
2021/11/01 04:28:39;;;;;;;11.75;1.98;;;;;;;;;;5049121;28;20028;-65
2021/11/01 04:31:14;;;;;;;12.13;2.00;;;;;;;;;;5049590;28;20397;-65
2021/11/01 04:33:42;;;;;;;11.02;1.73;;;;;;;;;;5047127;28;20025;-64
2021/11/01 04:36:07;;;;;;;9.27;1.48;;;;;;;;;;5036048;28;20020;-64
2021/11/01 04:54:23;;;;;;;7.43;1.45;;;;;;;;;;5042683;28;20024;-65
2021/11/01 04:56:49;;;;;;;6.60;1.38;;;;;;;;;;5039460;28;20034;-64
2021/11/01 04:59:14;;;;;;;5.18;0.93;;;;;;;;;;5049538;28;20466;-64
2021/11/01 05:01:43;;;;;;;16.13;3.15;;;;;;;;;;5053507;28;20397;-67
2021/11/01 05:04:12;;;;;;;11.93;1.55;;;;;;;;;;5054099;28;20013;-65
2021/11/01 05:06:46;;;;;;;15.73;1.83;;;;;;;;;;5042486;28;20025;-64
2021/11/01 05:09:16;;;;;;;12.05;3.22;;;;;;;;;;5034190;28;20528;-64
2021/11/01 05:11:55;;;;;;;13.85;1.98;;;;;;;;;;5049286;28;20083;-64
2021/11/01 05:14:35;;;;;;;7.40;1.50;;;;;;;;;;5053042;28;20017;-66
2021/11/01 05:17:31;;;;;;;14.25;2.33;;;;;;;;;;5034184;28;20023;-65
2021/11/01 05:19:52;;;;;;;7.97;1.83;;;;;;;;;;5033709;28;20041;-66
2021/11/01 05:24:58;;;;;;;1.77;1.05;;;;;;;;;;5036099;28;20028;-64
2021/11/01 05:27:38;;;;;;;10.57;1.70;;;;;;;;;;5032687;28;20060;-66
2021/11/01 05:30:07;;;;;;;15.77;1.88;;;;;;;;;;5046423;28;20115;-65
2021/11/01 05:32:34;;;;;;;10.93;2.60;;;;;;;;;;5038171;28;20038;-66
2021/11/01 05:34:59;;;;;;;8.43;1.70;;;;;;;;;;5033866;28;20105;-64
2021/11/01 05:37:24;;;;;;;13.85;1.77;;;;;;;;;;5034687;28;20104;-65
2021/11/01 05:39:50;;;;;;;7.68;1.75;;;;;;;;;;5042247;28;20084;-64
2021/11/01 05:42:15;;;;;;;19.38;1.65;;;;;;;;;;5033548;28;20021;-64
2021/11/01 05:44:40;;;;;;;3.00;0.75;;;;;;;;;;5033607;28;20492;-64
2021/11/01 05:47:06;;;;;;;3.22;1.17;;;;;;;;;;5047216;28;20421;-65
2021/11/01 05:49:31;;;;;;;5.70;1.27;;;;;;;;;;5050725;28;20025;-67
2021/11/01 05:51:57;;;;;;;11.32;1.92;;;;;;;;;;5048538;28;20064;-64
2021/11/01 05:54:26;;;;;;;10.27;2.35;;;;;;;;;;5034844;28;20466;-65
2021/11/01 06:05:03;;;;;;;;;;;;;;;;;;5049164;28;20450;-66
2021/11/01 06:07:47;;;;;;;10.15;1.98;;;;;;;;;;5047378;28;20526;-64
2021/11/01 06:10:24;;;;;;;0.98;0.88;;;;;;;;;;5033247;28;20386;-66
2021/11/01 06:15:33;;;;;;;6.20;1.40;;;;;;;;;;5048460;28;20079;-65
2021/11/01 06:17:58;;;;;;;12.10;2.30;;;;;;;;;;5036476;28;20017;-64
2021/11/01 06:20:23;;;;;;;8.95;1.70;;;;;;;;;;5052548;28;20017;-65
2021/11/01 06:22:49;;;;;;;9.10;2.35;;;;;;;;;;5038692;28;20045;-65
2021/11/01 06:25:17;;;;;;;11.32;1.40;;;;;;;;;;5032825;28;20104;-65
2021/11/01 06:27:43;;;;;;;3.38;0.50;;;;;;;;;;5050369;28;20029;-64
2021/11/01 06:43:16;;;;;;;4.28;1.10;;;;;;;;;;5033548;28;20021;-65
2021/11/01 06:51:10;;;;;;;8.73;1.52;;;;;;;;;;5041190;28;20068;-64
2021/11/01 08:22:59;;;;;;;3.55;0.93;;;;;;;;;;5048737;28;20036;-65
2021/11/01 08:25:53;;;;;;;7.43;1.17;;;;;;;;;;5043839;28;20413;-64
2021/11/01 08:47:05;;;;;;;7.43;1.58;;;;;;;;;;5048359;28;20032;-67
2021/11/01 09:05:52;;;;;;;7.78;1.60;;;;;;;;;;5028609;28;20112;-66
2021/11/01 09:19:32;;;;;;;10.00;1.05;;;;;;;;;;5037706;28;20032;-65
2021/11/01 09:22:08;;;;;;;3.70;0.93;;;;;;;;;;5037022;28;20481;-64
2021/11/01 09:24:39;;;;;;;3.45;0.70;;;;;;;;;;5043915;28;20108;-65
2021/11/01 09:27:07;;;;;;;7.93;1.27;;;;;;;;;;5045582;28;20021;-64
2021/11/01 09:29:53;;;;;;;10.30;1.02;;;;;;;;;;5034422;28;20022;-63
2021/11/01 09:43:06;;;;;;;9.30;1.25;;;;;;;;;;5040398;28;20064;-65
2021/11/01 09:45:35;;;;;;;3.90;0.70;;;;;;;;;;5042921;28;20020;-65
2021/11/01 09:48:00;;;;;;;3.78;1.40;;;;;;;;;;5039755;28;20439;-65
2021/11/01 09:50:25;;;;;;;1.08;0.32;;;;;;;;;;5031205;28;20111;-67
2021/11/01 09:52:58;;;;;;;11.27;1.23;;;;;;;;;;5031001;28;20032;-67
2021/11/01 10:00:57;;;;;;;5.60;1.25;;;;;;;;;;5047716;28;20400;-66
2021/11/01 10:03:33;;;;;;;9.13;1.00;;;;;;;;;;5059380;28;20024;-63
2021/11/01 10:05:59;;;;;;;6.47;1.10;;;;;;;;;;5048762;28;20048;-67
2021/11/01 10:08:25;;;;;;;5.50;1.00;;;;;;;;;;5050563;28;20028;-67
2021/11/01 10:10:50;;;;;;;4.80;1.23;;;;;;;;;;5041930;28;20030;-67
2021/11/01 10:13:16;;;;;;;6.72;1.52;;;;;;;;;;5036707;28;20033;-67
2021/11/01 10:18:26;;;;;;;8.15;1.10;;;;;;;;;;5043521;28;20063;-67
2021/11/01 10:20:52;;;;;;;5.63;1.02;;;;;;;;;;5043520;28;20049;-64
2021/11/01 10:23:20;;;;;;;6.72;0.90;;;;;;;;;;5046809;28;20021;-66
2021/11/01 10:25:45;;;;;;;5.45;1.08;;;;;;;;;;5041783;28;20017;-65
2021/11/01 10:28:11;;;;;;;7.47;1.70;;;;;;;;;;5047758;28;20028;-65
2021/11/01 10:30:36;;;;;;;8.48;1.25;;;;;;;;;;5040607;28;20030;-66
2021/11/01 10:33:07;;;;;;;9.95;1.23;;;;;;;;;;5049203;28;20549;-64
2021/11/01 10:35:34;;;;;;;4.18;0.80;;;;;;;;;;5043420;28;20025;-67
2021/11/01 10:38:10;;;;;;;9.50;1.08;;;;;;;;;;5049561;28;20099;-66
2021/11/01 10:40:39;;;;;;;6.43;0.85;;;;;;;;;;5043913;28;20071;-67
2021/11/01 10:43:23;;;;;;;7.60;0.90;;;;;;;;;;5051261;28;20113;-67
2021/11/01 11:12:38;;;;;;;6.35;0.60;;;;;;;;;;5036796;28;20103;-67
2021/11/01 11:15:13;;;;;;;4.20;0.90;;;;;;;;;;5051817;28;20021;-66
2021/11/01 11:17:49;;;;;;;5.63;0.68;;;;;;;;;;5046476;28;20020;-67
2021/11/01 11:20:28;;;;;;;8.07;0.70;;;;;;;;;;5044826;28;20017;-64
2021/11/01 11:28:53;;;;;;;4.85;0.75;;;;;;;;;;5031904;28;20103;-66
2021/11/01 11:31:36;;;;;;;6.50;0.77;;;;;;;;;;5039894;28;20025;-65
2021/11/01 11:47:35;;;;;;;7.63;1.20;;;;;;;;;;5040970;28;20766;-64
2021/11/01 11:50:09;;;;;;;5.37;0.97;;;;;;;;;;5045225;28;20124;-66
2021/11/01 11:52:35;;;;;;;4.45;0.70;;;;;;;;;;5047814;28;20289;-66
2021/11/01 11:55:06;;;;;;;5.97;0.85;;;;;;;;;;5034755;28;20055;-65
2021/11/01 11:57:35;;;;;;;10.02;0.90;;;;;;;;;;5036299;28;20029;-65
2021/11/01 12:00:03;;;;;;;5.18;1.02;;;;;;;;;;5037132;28;20009;-67
2021/11/01 12:02:39;;;;;;;5.05;0.90;;;;;;;;;;5035207;28;20033;-68
2021/11/01 12:05:05;;;;;;;7.55;1.17;;;;;;;;;;5032624;28;20021;-66
2021/11/01 12:07:39;;;;;;;6.28;0.70;;;;;;;;;;5030762;28;20428;-66
2021/11/01 12:10:12;;;;;;;5.20;0.65;;;;;;;;;;5036065;28;20381;-66
2021/11/01 12:17:50;;;;;;;2.08;1.00;;;;;;;;;;5043728;28;20114;-65
2021/11/01 12:20:15;;;;;;;7.40;1.02;;;;;;;;;;5050214;28;20480;-66
2021/11/01 12:22:44;;;;;;;1.65;0.50;;;;;;;;;;5032580;28;20033;-65
2021/11/01 12:25:14;;;;;;;3.40;0.82;;;;;;;;;;5033239;28;20505;-66
2021/11/01 12:27:40;;;;;;;;;;;;;;;;;;5031278;28;20033;-64
2021/11/01 12:30:12;;;;;;;4.75;0.85;;;;;;;;;;5032470;28;19996;-65
2021/11/01 12:32:38;;;;;;;9.02;0.98;;;;;;;;;;5042151;28;20028;-65
2021/11/01 12:35:28;;;;;;;4.72;0.88;;;;;;;;;;5032102;28;20021;-65
2021/11/01 12:37:56;;;;;;;2.38;0.90;;;;;;;;;;5047715;28;20088;-65
2021/11/01 12:48:41;;;;;;;5.57;1.00;;;;;;;;;;5030451;28;20132;-63
2021/11/01 12:57:04;;;;;;;5.45;0.73;;;;;;;;;;5037341;28;20075;-65
2021/11/01 12:59:41;;;;;;;5.35;1.83;;;;;;;;;;5035532;28;20021;-64
2021/11/01 13:02:08;;;;;;;5.40;1.00;;;;;;;;;;5029848;28;20029;-65
2021/11/01 13:04:37;;;;;;;4.32;0.50;;;;;;;;;;5044657;28;20072;-64
2021/11/01 13:07:13;;;;;;;6.68;0.63;;;;;;;;;;5048133;28;20049;-65
2021/11/01 13:09:44;;;;;;;4.18;0.70;;;;;;;;;;5049973;28;20029;-63
2021/11/01 13:12:26;;;;;;;7.07;0.52;;;;;;;;;;5051524;28;20033;-66
2021/11/01 13:15:06;;;;;;;8.32;1.30;;;;;;;;;;5044799;28;20024;-66
2021/11/01 13:20:20;;;;;;;6.18;1.02;;;;;;;;;;5046118;28;20024;-65
2021/11/01 13:22:50;;;;;;;7.30;1.33;;;;;;;;;;5052199;28;20060;-65
2021/11/01 13:25:33;;;;;;;2.97;0.85;;;;;;;;;;5051931;28;20074;-64
2021/11/01 13:28:25;;;;;;;11.55;0.93;;;;;;;;;;5042198;28;20029;-65
2021/11/01 13:38:50;;;;;;;5.20;0.73;;;;;;;;;;5032982;28;20072;-63
2021/11/01 13:41:21;;;;;;;5.03;0.60;;;;;;;;;;5033580;28;20016;-64
2021/11/01 13:43:46;;;;;;;5.93;1.15;;;;;;;;;;5050942;28;20063;-63
2021/11/01 13:46:14;;;;;;;3.28;0.90;;;;;;;;;;5047244;28;20093;-63
2021/11/01 13:48:40;;;;;;;10.15;1.48;;;;;;;;;;5033414;28;20393;-63
2021/11/01 13:51:10;;;;;;;2.90;0.80;;;;;;;;;;5045696;28;20032;-63
2021/11/01 13:53:57;;;;;;;4.88;1.15;;;;;;;;;;5043841;28;20063;-63
2021/11/01 13:56:26;;;;;;;4.45;0.85;;;;;;;;;;5033360;28;20390;-64
2021/11/01 13:58:55;;;;;;;5.55;1.10;;;;;;;;;;5033085;28;20022;-64
2021/11/01 14:01:44;;;;;;;6.50;0.93;;;;;;;;;;5033162;28;20032;-63
2021/11/01 14:17:31;;;;;;;8.73;0.90;;;;;;;;;;5032482;28;20489;-64
2021/11/01 14:28:22;;;;;;;7.78;1.20;;;;;;;;;;5032781;28;20071;-66
2021/11/01 14:33:51;;;;;;;13.55;1.10;;;;;;;;;;5047753;28;20025;-65
2021/11/01 15:00:58;;;;;;;6.53;0.75;;;;;;;;;;5044393;28;20481;-65
2021/11/01 15:17:11;;;;;;;3.87;0.80;;;;;;;;;;5045974;28;20045;-67
2021/11/01 15:25:38;;;;;;;3.47;0.60;;;;;;;;;;5035958;28;20033;-65
2021/11/01 16:18:39;;;;;;;5.82;1.48;;;;;;;;;;5038271;28;20068;-67
2021/11/01 16:21:05;;;;;;;9.45;2.42;;;;;;;;;;5048267;23;20025;-85
2021/11/01 16:23:35;;;;;;;9.20;1.88;;;;;;;;;;5053288;28;20047;-84
2021/11/01 16:26:10;;;;;;;9.60;2.05;;;;;;;;;;5052233;28;20029;-83
2021/11/01 16:28:35;;;;;;;11.02;2.45;;;;;;;;;;5050713;28;20021;-84
2021/11/01 16:31:19;;;;;;;6.40;1.88;;;;;;;;;;5035783;28;20089;-84
2021/11/01 16:33:48;;;;;;;15.57;2.35;;;;;;;;;;5034649;28;20041;-85
2021/11/01 16:36:25;;;;;;;8.30;1.35;;;;;;;;;;5052299;28;20021;-85
2021/11/01 16:38:52;;;;;;;6.93;1.90;;;;;;;;;;5052635;28;20025;-84
2021/11/01 16:41:21;;;;;;;5.15;1.70;;;;;;;;;;5035719;28;20057;-85
2021/11/01 16:43:46;;;;;;;7.28;1.80;;;;;;;;;;5034348;28;20068;-85
2021/11/01 16:46:12;;;;;;;11.32;2.10;;;;;;;;;;5051391;28;20022;-85
2021/11/01 16:48:37;;;;;;;8.02;2.53;;;;;;;;;;5041641;28;20013;-84
2021/11/01 16:51:03;;;;;;;10.57;2.38;;;;;;;;;;5038103;28;20447;-84
2021/11/01 16:53:29;;;;;;;7.65;1.77;;;;;;;;;;5054895;28;20041;-85
2021/11/01 16:55:59;;;;;;;9.75;2.63;;;;;;;;;;5050578;28;20017;-85
2021/11/01 16:58:31;;;;;;;8.90;2.95;;;;;;;;;;5043963;28;20022;-85
2021/11/01 17:01:01;;;;;;;16.92;3.38;;;;;;;;;;5033632;28;20025;-84
2021/11/01 17:06:29;;;;;;;14.55;3.10;;;;;;;;;;5033915;28;20030;-86
2021/11/01 17:22:29;;;;;;;15.65;3.53;;;;;;;;;;5025327;28;20052;-85
2021/11/01 17:36:17;;;;;;;10.02;2.85;;;;;;;;;;5033892;28;20099;-85
2021/11/01 18:41:08;;;;;;;7.55;2.03;;;;;;;;;;5034782;28;20025;-86
2021/11/01 18:46:31;;;;;;;6.63;1.90;;;;;;;;;;5037153;28;20009;-86
2021/11/01 18:51:43;;;;;;;7.25;1.98;;;;;;;;;;5029195;28;20132;-85
2021/11/01 18:54:22;;;;;;;9.43;1.95;;;;;;;;;;5025070;28;20029;-85
2021/11/01 18:56:48;;;;;;;7.90;2.13;;;;;;;;;;5040897;28;20493;-86
2021/11/01 18:59:14;;;;;;;13.25;3.67;;;;;;;;;;5025268;28;20022;-84
2021/11/01 19:01:42;;;;;;;11.75;3.22;;;;;;;;;;5015485;28;20113;-85
2021/11/01 19:04:12;;;;;;;9.15;2.17;;;;;;;;;;5029916;28;20076;-85
2021/11/01 20:06:36;;;;;;;6.32;2.17;;;;;;;;;;5050451;28;20247;-84
2021/11/01 21:25:55;;;;;;;10.55;3.53;;;;;;;;;;5008432;28;20033;-70
2021/11/01 21:28:21;;;;;;;12.95;3.42;;;;;;;;;;5005135;28;20037;-70
2021/11/01 21:30:47;;;;;;;6.80;2.83;;;;;;;;;;5007855;28;20033;-69
2021/11/01 21:33:18;;;;;;;13.25;3.70;;;;;;;;;;5008065;28;20032;-71
2021/11/01 21:35:49;;;;;;;15.57;4.57;;;;;;;;;;5008162;28;20685;-70
2021/11/01 21:38:14;;;;;;;6.45;2.63;;;;;;;;;;5011893;28;20485;-69
2021/11/01 21:40:42;;;;;;;6.13;2.78;;;;;;;;;;5011603;28;20026;-71
2021/11/01 21:43:07;;;;;;;10.00;1.88;;;;;;;;;;5011277;28;20060;-70
2021/11/01 21:45:32;;;;;;;6.18;1.88;;;;;;;;;;5011682;28;20022;-69
2021/11/01 21:47:57;;;;;;;13.20;2.27;;;;;;;;;;5011783;28;20105;-70
2021/11/01 21:50:23;;;;;;;11.13;2.50;;;;;;;;;;5011503;28;20288;-70
2021/11/01 21:52:49;;;;;;;9.00;2.40;;;;;;;;;;5001328;28;20072;-69
2021/11/01 21:55:16;;;;;;;10.50;2.85;;;;;;;;;;5011292;28;20018;-69
2021/11/01 21:57:51;;;;;;;14.95;2.05;;;;;;;;;;5011167;28;20057;-69
2021/11/01 22:21:21;;;;;;;10.77;2.40;;;;;;;;;;5010911;28;20050;-69
2021/11/01 22:34:36;;;;;;;9.77;2.13;;;;;;;;;;5009243;28;20410;-71
2021/11/01 22:40:27;;;;;;;12.27;2.35;;;;;;;;;;5010309;28;20040;-71
2021/11/01 22:42:47;;;;;;;17.80;2.30;;;;;;;;;;5006892;28;20457;-69
2021/11/01 22:45:20;;;;;;;8.60;2.50;;;;;;;;;;5010156;28;20025;-69
2021/11/01 22:48:11;;;;;;;11.82;2.63;;;;;;;;;;5010106;28;20021;-69
2021/11/01 22:58:28;;;;;;;9.23;2.22;;;;;;;;;;5008008;28;20536;-69
2021/11/01 23:00:58;;;;;;;6.00;1.85;;;;;;;;;;5010970;28;20022;-71
2021/11/01 23:03:29;;;;;;;8.10;1.90;;;;;;;;;;5012182;28;20022;-69
2021/11/01 23:32:54;;;;;;;8.90;1.60;;;;;;;;;;5011230;28;20449;-69
2021/11/01 23:35:20;;;;;;;9.52;1.60;;;;;;;;;;5011053;28;20046;-69
2021/11/01 23:37:45;;;;;;;8.95;1.67;;;;;;;;;;5011483;28;20022;-70
2021/11/01 23:40:10;;;;;;;15.98;1.90;;;;;;;;;;5010839;28;20030;-69
2021/11/01 23:42:35;;;;;;;11.40;1.65;;;;;;;;;;5010071;28;20060;-69
2021/11/01 23:45:01;;;;;;;7.40;1.58;;;;;;;;;;5011194;28;20091;-69
2021/11/01 23:47:26;;;;;;;15.65;2.15;;;;;;;;;;5010211;28;20033;-69
2021/11/01 23:49:51;;;;;;;20.38;2.67;;;;;;;;;;5010655;28;20512;-68
2021/11/01 23:52:17;;;;;;;7.22;1.63;;;;;;;;;;5010191;28;20101;-69
2021/11/01 23:54:43;;;;;;;11.80;1.70;;;;;;;;;;5011159;28;20029;-70
2021/11/01 23:57:09;;;;;;;3.90;1.60;;;;;;;;;;5011196;28;20018;-69
2021/11/01 23:59:34;;;;;;;12.10;1.90;;;;;;;;;;5010377;28;20018;-69
